Time;durP1;ratioP1;P1;durP2;ratioP2;P2;SDS_P1;SDS_P2;PMS_P1;PMS_P2;Temp;Humidity;BMP_temperature;BMP_pressure;BME280_temperature;BME280_humidity;BME280_pressure;Samples;Min_cycle;Max_cycle;Signal;HPM_P1;HPM_P2
2022/09/06 00:02:53;;;;;;;6.85;2.78;;;;;;;21.17;45.90;100322.03;7614451;32;39910;-72
2022/09/06 00:07:10;;;;;;;4.43;2.47;;;;;;;21.14;46.14;100322.69;7632216;32;38046;-72
2022/09/06 00:11:26;;;;;;;4.47;2.42;;;;;;;21.17;45.82;100313.72;7632114;32;37178;-72
2022/09/06 00:15:42;;;;;;;6.25;2.95;;;;;;;21.14;45.91;100306.03;7631873;32;39323;-72
2022/09/06 00:19:59;;;;;;;9.25;3.00;;;;;;;21.08;45.79;100301.84;7619463;32;39911;-72
2022/09/06 00:24:15;;;;;;;9.35;2.87;;;;;;;20.84;46.37;100305.97;7605836;32;38636;-71
2022/09/06 00:28:31;;;;;;;5.65;3.17;;;;;;;20.72;47.02;100305.81;7605980;32;37627;-72
2022/09/06 00:32:49;;;;;;;3.58;2.80;;;;;;;20.67;52.97;100308.75;7605785;32;39086;-71
2022/09/06 00:37:05;;;;;;;4.05;2.95;;;;;;;20.47;53.88;100322.06;7605796;32;39331;-71
2022/09/06 00:41:22;;;;;;;4.00;2.62;;;;;;;20.37;54.21;100312.16;7605685;32;37803;-71
2022/09/06 00:45:39;;;;;;;5.03;2.28;;;;;;;20.73;52.29;100304.66;7605631;32;37166;-71
2022/09/06 00:49:57;;;;;;;4.40;2.30;;;;;;;20.70;48.41;100305.34;7606241;32;39897;-71
2022/09/06 00:54:14;;;;;;;4.93;2.58;;;;;;;20.70;46.97;100292.28;7605427;32;39140;-72
2022/09/06 00:58:30;;;;;;;7.30;2.40;;;;;;;20.77;46.76;100298.13;7605337;32;38132;-72
2022/09/06 01:02:47;;;;;;;3.87;2.53;;;;;;;20.81;46.89;100298.28;7605341;32;37820;-72
2022/09/06 01:07:40;;;;;;;3.67;2.25;;;;;;;20.79;46.87;100300.59;7605233;32;39157;-71
2022/09/06 01:12:09;;;;;;;3.47;2.50;;;;;;;20.85;46.42;100304.78;7618455;32;40759;-71
2022/09/06 01:16:51;;;;;;;6.03;2.83;;;;;;;21.14;45.37;100295.75;7630993;32;38058;-71
2022/09/06 01:21:10;;;;;;;4.95;2.90;;;;;;;21.22;45.35;100291.34;7626826;32;37013;-71
2022/09/06 01:25:42;;;;;;;5.10;2.70;;;;;;;21.31;45.43;100289.34;7630894;32;39603;-71
2022/09/06 01:30:11;;;;;;;4.05;2.53;;;;;;;21.33;45.65;100295.38;7617999;32;39872;-72
2022/09/06 01:35:12;;;;;;;4.05;2.17;;;;;;;21.31;45.61;100289.34;7617069;32;37936;-72
2022/09/06 01:39:33;;;;;;;3.67;2.22;;;;;;;21.39;45.16;100291.28;7630511;32;37885;-72
2022/09/06 01:43:50;;;;;;;2.85;2.10;;;;;;;21.34;44.98;100285.91;7579747;32;39325;-71
2022/09/06 01:48:12;;;;;;;5.55;2.40;;;;;;;21.36;44.92;100291.94;7577262;33;40047;-72
2022/09/06 01:52:41;;;;;;;6.37;2.70;;;;;;;21.30;45.19;100290.50;7578293;33;38053;-71
2022/09/06 01:57:23;;;;;;;6.37;2.30;;;;;;;21.42;44.69;100297.31;7577124;33;37872;-71
2022/09/06 02:01:48;;;;;;;6.05;3.03;;;;;;;21.62;44.41;100293.00;7577004;33;39443;-72
2022/09/06 02:06:08;;;;;;;3.00;2.35;;;;;;;21.33;45.31;100294.56;7578000;32;39968;-71
2022/09/06 02:10:33;;;;;;;7.87;3.30;;;;;;;21.16;45.84;100296.28;7624751;32;37997;-72
2022/09/06 02:15:01;;;;;;;3.40;2.47;;;;;;;21.46;45.06;100284.41;7616836;32;36706;-71
2022/09/06 02:19:44;;;;;;;4.72;2.65;;;;;;;21.31;46.78;100289.34;7617334;32;40118;-72
2022/09/06 02:24:04;;;;;;;3.17;2.15;;;;;;;21.22;46.55;100285.81;7621221;32;39848;-72
2022/09/06 02:28:20;;;;;;;4.70;2.45;;;;;;;21.24;45.90;100282.69;7620087;32;38191;-71
2022/09/06 02:32:48;;;;;;;9.00;2.80;;;;;;;21.11;45.91;100278.97;7633095;32;38054;-71
2022/09/06 02:37:05;;;;;;;4.57;2.90;;;;;;;21.23;45.46;100278.28;7630924;32;39984;-71
2022/09/06 02:41:22;;;;;;;3.78;2.40;;;;;;;20.97;45.52;100282.78;7633129;32;40764;-72
2022/09/06 02:45:39;;;;;;;3.40;2.72;;;;;;;20.79;46.20;100278.41;7619827;32;38796;-72
2022/09/06 02:49:55;;;;;;;6.50;3.03;;;;;;;20.84;45.99;100292.09;7633041;32;37947;-71
2022/09/06 02:54:11;;;;;;;5.07;2.75;;;;;;;20.77;46.31;100287.06;7632955;32;39406;-72
2022/09/06 02:58:28;;;;;;;5.15;2.60;;;;;;;20.63;46.14;100280.91;7620893;32;40776;-72
2022/09/06 03:02:44;;;;;;;4.65;2.83;;;;;;;20.55;46.19;100276.94;7606715;32;38035;-72
2022/09/06 03:07:00;;;;;;;4.25;2.87;;;;;;;20.54;46.19;100272.56;7606724;32;37234;-70
2022/09/06 03:11:16;;;;;;;5.82;2.35;;;;;;;20.50;46.23;100287.38;7606604;32;39316;-72
2022/09/06 03:15:32;;;;;;;5.35;2.55;;;;;;;20.50;46.28;100271.56;7606767;32;40723;-72
2022/09/06 03:19:48;;;;;;;4.05;2.55;;;;;;;20.29;46.54;100279.72;7606350;32;38048;-72
2022/09/06 03:24:05;;;;;;;6.90;2.70;;;;;;;20.18;46.41;100278.41;7606355;32;37739;-72
2022/09/06 03:28:22;;;;;;;5.10;2.75;;;;;;;20.23;46.33;100287.38;7606462;32;39465;-72
2022/09/06 03:32:38;;;;;;;6.68;2.92;;;;;;;20.25;46.22;100287.87;7605972;32;40877;-71
2022/09/06 03:36:54;;;;;;;4.57;2.55;;;;;;;20.23;45.91;100284.63;7606273;32;38847;-72
2022/09/06 03:41:10;;;;;;;4.22;2.40;;;;;;;20.03;45.98;100276.94;7606409;32;37167;-72
2022/09/06 03:45:26;;;;;;;6.10;3.12;;;;;;;20.16;44.95;100284.28;7606382;32;39335;-72
2022/09/06 03:49:44;;;;;;;3.67;2.45;;;;;;;20.08;45.34;100280.38;7615887;32;39958;-71
2022/09/06 03:54:00;;;;;;;6.32;2.25;;;;;;;20.30;44.74;100288.84;7632145;32;38821;-72
2022/09/06 03:58:18;;;;;;;5.18;2.45;;;;;;;20.06;44.98;100279.06;7632311;32;37272;-71
2022/09/06 04:02:34;;;;;;;4.55;2.58;;;;;;;20.30;44.36;100283.31;7632234;32;39942;-72
2022/09/06 04:06:50;;;;;;;5.20;2.78;;;;;;;20.27;44.45;100282.00;7626071;32;40344;-72
2022/09/06 04:11:06;;;;;;;3.45;2.42;;;;;;;20.30;44.40;100277.75;7632069;32;37985;-72
2022/09/06 04:15:22;;;;;;;6.55;2.87;;;;;;;20.33;43.86;100289.00;7631975;32;37822;-72
2022/09/06 04:19:38;;;;;;;4.43;2.70;;;;;;;20.29;43.86;100278.91;7623434;32;40144;-72
2022/09/06 04:23:54;;;;;;;6.47;2.97;;;;;;;20.34;43.51;100281.53;7605914;32;40760;-71
2022/09/06 04:28:10;;;;;;;5.15;2.95;;;;;;;20.09;43.79;100292.25;7605793;32;37943;-72
2022/09/06 04:32:27;;;;;;;5.18;2.90;;;;;;;20.28;43.24;100286.41;7605789;32;37179;-72
2022/09/06 04:36:43;;;;;;;8.30;2.90;;;;;;;20.51;42.72;100281.53;7605559;32;40173;-71
2022/09/06 04:41:04;;;;;;;7.43;2.90;;;;;;;20.34;42.92;100276.00;7611454;32;40833;-72
2022/09/06 04:45:20;;;;;;;5.30;2.62;;;;;;;20.13;43.32;100273.88;7617264;32;37967;-72
2022/09/06 04:49:37;;;;;;;6.03;2.60;;;;;;;20.17;43.07;100274.84;7631723;32;37693;-72
2022/09/06 04:53:53;;;;;;;5.90;2.40;;;;;;;20.15;43.86;100273.53;7631579;32;39390;-71
2022/09/06 04:58:09;;;;;;;5.93;2.83;;;;;;;20.27;42.87;100273.72;7617890;32;39865;-72
2022/09/06 05:02:25;;;;;;;4.93;2.87;;;;;;;20.29;43.56;100285.25;7631297;32;37956;-71
2022/09/06 05:06:42;;;;;;;3.53;2.62;;;;;;;20.32;43.70;100276.31;7631309;32;38255;-75
2022/09/06 05:10:58;;;;;;;6.55;2.65;;;;;;;20.42;44.79;100264.06;7629899;32;39395;-72
2022/09/06 05:15:14;;;;;;;3.95;2.50;;;;;;;20.54;46.07;100274.50;7631329;32;39954;-72
2022/09/06 05:19:30;;;;;;;4.37;2.80;;;;;;;20.34;43.94;100270.47;7630964;32;37946;-72
2022/09/06 05:23:46;;;;;;;4.25;2.22;;;;;;;20.32;43.68;100287.38;7613956;32;37232;-72
2022/09/06 05:28:02;;;;;;;5.18;2.60;;;;;;;20.41;43.19;100274.34;7604915;32;39453;-72
2022/09/06 05:32:19;;;;;;;10.35;2.92;;;;;;;20.16;43.98;100276.00;7604642;32;39999;-72
2022/09/06 05:36:35;;;;;;;5.70;2.78;;;;;;;20.40;43.38;100275.50;7604533;32;39265;-73
2022/09/06 05:40:51;;;;;;;4.93;2.90;;;;;;;20.39;42.74;100281.37;7605127;32;37131;-72
2022/09/06 05:45:07;;;;;;;5.93;2.67;;;;;;;20.50;43.01;100273.53;7604503;32;40486;-72
2022/09/06 05:49:24;;;;;;;4.55;2.70;;;;;;;20.60;42.71;100285.09;7604572;32;39806;-72
2022/09/06 05:53:42;;;;;;;4.43;2.60;;;;;;;20.92;42.31;100284.91;7604355;32;38556;-73
2022/09/06 05:57:58;;;;;;;4.62;2.90;;;;;;;20.72;41.34;100280.87;7607689;32;37947;-72
2022/09/06 06:02:14;;;;;;;4.90;2.75;;;;;;;20.84;41.34;100286.56;7611021;32;39620;-72
2022/09/06 06:06:33;;;;;;;7.15;2.83;;;;;;;21.22;40.90;100273.91;7633618;32;39982;-73
2022/09/06 06:10:49;;;;;;;5.80;2.90;;;;;;;21.20;41.38;100275.03;7633421;32;36750;-72
2022/09/06 06:15:06;;;;;;;5.80;2.72;;;;;;;21.27;41.22;100279.28;7633663;32;36771;-73
2022/09/06 06:19:22;;;;;;;6.07;2.78;;;;;;;21.26;41.30;100275.66;7633466;32;39435;-72
2022/09/06 06:23:38;;;;;;;4.32;3.03;;;;;;;20.84;40.17;100278.25;7633501;32;40082;-72
2022/09/06 06:27:55;;;;;;;5.45;3.03;;;;;;;21.73;38.57;100272.03;7633405;32;38843;-72
2022/09/06 06:32:11;;;;;;;8.27;3.00;;;;;;;21.62;38.85;100279.94;7619562;32;37884;-72
2022/09/06 06:36:30;;;;;;;6.62;2.95;;;;;;;21.97;38.73;100284.47;7633384;32;39448;-73
2022/09/06 06:40:46;;;;;;;5.03;2.90;;;;;;;21.78;38.79;100282.16;7619957;32;40982;-72
2022/09/06 06:45:02;;;;;;;5.50;2.70;;;;;;;22.29;39.99;100283.78;7633002;32;38029;-71
2022/09/06 06:49:18;;;;;;;5.70;2.95;;;;;;;22.23;39.97;100278.72;7633136;32;37284;-72
2022/09/06 06:53:34;;;;;;;3.58;2.45;;;;;;;22.76;39.09;100290.25;7633169;32;39475;-71
2022/09/06 06:57:51;;;;;;;4.28;2.58;;;;;;;22.65;37.40;100290.66;7628548;32;39970;-74
2022/09/06 07:02:07;;;;;;;4.95;3.03;;;;;;;22.75;37.48;100281.09;7630750;32;38037;-75
2022/09/06 07:06:23;;;;;;;3.97;2.90;;;;;;;22.49;37.17;100298.81;7632214;32;37052;-74
2022/09/06 07:11:00;;;;;;;3.72;2.60;;;;;;;22.97;36.03;100295.75;7632455;32;39577;-74
2022/09/06 07:15:16;;;;;;;6.80;2.83;;;;;;;23.27;35.21;100304.78;7632827;32;40945;-72
2022/09/06 07:19:32;;;;;;;3.85;2.80;;;;;;;23.30;34.98;100306.03;7632693;32;37980;-73
2022/09/06 07:24:08;;;;;;;6.30;3.08;;;;;;;23.44;34.69;100312.91;7632209;32;38237;-74
2022/09/06 07:28:25;;;;;;;5.30;3.15;;;;;;;23.74;35.81;100311.87;7632701;32;39585;-74
2022/09/06 07:32:41;;;;;;;7.87;2.85;;;;;;;23.72;35.46;100305.84;7632426;32;40088;-73
2022/09/06 07:36:57;;;;;;;5.15;2.97;;;;;;;23.86;34.76;100303.53;7618960;32;38476;-73
2022/09/06 07:41:14;;;;;;;9.02;3.15;;;;;;;23.59;34.52;100297.50;7631466;32;37609;-75
2022/09/06 07:45:30;;;;;;;6.70;3.40;;;;;;;23.74;35.20;100300.75;7606515;32;39361;-71
2022/09/06 07:49:46;;;;;;;7.47;3.05;;;;;;;24.16;36.13;100294.91;7624914;32;40125;-71
2022/09/06 07:54:22;;;;;;;4.40;2.92;;;;;;;24.31;34.99;100302.53;7631856;32;38251;-71
2022/09/06 07:58:45;;;;;;;9.05;2.90;;;;;;;24.46;35.11;100291.81;7632351;32;37145;-71
2022/09/06 08:03:01;;;;;;;6.20;3.03;;;;;;;24.90;34.74;100289.88;7632312;32;39320;-71
2022/09/06 08:07:17;;;;;;;12.23;3.35;;;;;;;24.90;35.14;100289.88;7632160;32;40775;-72
2022/09/06 08:11:53;;;;;;;6.30;2.97;;;;;;;24.82;34.90;100293.66;7631413;32;39059;-71
2022/09/06 08:16:11;;;;;;;5.50;2.58;;;;;;;25.06;35.19;100287.16;7632129;32;37029;-71
2022/09/06 08:20:27;;;;;;;7.28;3.10;;;;;;;24.82;33.85;100288.09;7632093;32;39355;-71
2022/09/06 08:24:43;;;;;;;7.12;3.00;;;;;;;24.97;33.94;100283.69;7631913;32;40717;-71
2022/09/06 08:29:01;;;;;;;5.43;3.03;;;;;;;25.20;34.35;100285.88;7631887;32;38755;-73
2022/09/06 08:33:24;;;;;;;6.37;3.05;;;;;;;25.17;34.61;100281.03;7631924;32;36046;-73
2022/09/06 08:37:40;;;;;;;4.00;2.70;;;;;;;25.35;34.85;100287.09;7631910;32;40150;-74
2022/09/06 08:42:04;;;;;;;8.85;3.20;;;;;;;25.77;34.36;100270.59;7631927;32;39842;-71
2022/09/06 08:46:25;;;;;;;7.85;3.55;;;;;;;26.06;33.48;100274.06;7631770;32;38037;-72
2022/09/06 08:50:46;;;;;;;5.70;3.35;;;;;;;26.29;33.35;100276.12;7618885;32;37794;-72
2022/09/06 08:55:39;;;;;;;6.57;3.28;;;;;;;26.41;33.03;100276.78;7618765;32;39851;-72
2022/09/06 09:00:00;;;;;;;6.40;4.18;;;;;;;26.70;33.39;100265.38;7632297;32;40575;-72
2022/09/06 09:04:19;;;;;;;5.85;2.62;;;;;;;26.29;33.22;100262.16;7618490;32;37926;-71
2022/09/06 09:08:58;;;;;;;4.47;2.95;;;;;;;26.37;33.49;100253.56;7618495;32;36712;-71
2022/09/06 09:13:26;;;;;;;8.32;3.03;;;;;;;26.54;34.25;100251.47;7620121;32;40022;-71
2022/09/06 09:17:43;;;;;;;7.05;3.40;;;;;;;26.86;32.09;100252.12;7631390;32;39795;-72
2022/09/06 09:21:59;;;;;;;6.80;3.20;;;;;;;27.06;32.52;100254.88;7617706;32;38015;-72
2022/09/06 09:26:15;;;;;;;5.28;2.70;;;;;;;27.51;32.22;100253.25;7631230;32;36839;-75
2022/09/06 09:30:48;;;;;;;6.72;3.12;;;;;;;27.66;32.28;100243.87;7622069;32;39171;-72
2022/09/06 09:35:40;;;;;;;3.80;2.65;;;;;;;27.95;30.70;100230.31;7632849;32;221709;-71
2022/09/06 09:39:57;;;;;;;6.57;3.42;;;;;;;28.04;31.08;100222.44;7639407;32;38641;-72
2022/09/06 09:44:17;;;;;;;5.05;2.62;;;;;;;28.25;31.36;100218.28;7625846;32;38251;-72
2022/09/06 09:48:33;;;;;;;11.07;3.35;;;;;;;28.44;30.24;100209.72;7626124;32;39151;-72
2022/09/06 09:52:49;;;;;;;5.32;2.80;;;;;;;28.46;30.78;100201.72;7630732;32;39645;-72
2022/09/06 09:57:10;;;;;;;5.95;3.15;;;;;;;28.79;29.82;100194.47;7635714;32;37679;-72
2022/09/06 10:01:34;;;;;;;7.07;2.90;;;;;;;28.98;29.50;100184.22;7635685;32;36266;-73
2022/09/06 10:05:59;;;;;;;6.05;2.90;;;;;;;28.99;29.72;100183.00;7623285;32;38885;-72
2022/09/06 10:10:24;;;;;;;5.32;2.90;;;;;;;29.12;29.44;100175.13;7638878;32;40772;-72
2022/09/06 10:14:43;;;;;;;10.52;3.45;;;;;;;29.35;27.88;100177.72;7625441;32;38045;-72
2022/09/06 10:18:59;;;;;;;8.07;3.35;;;;;;;29.52;29.11;100176.22;7611064;32;37148;-73
2022/09/06 10:23:24;;;;;;;6.22;2.90;;;;;;;29.35;28.49;100166.47;7612084;32;39337;-73
2022/09/06 10:28:18;;;;;;;6.95;2.95;;;;;;;29.74;28.75;100154.69;7600297;32;41328;-73
2022/09/06 10:32:46;;;;;;;4.43;2.65;;;;;;;30.24;27.80;100149.28;7612011;32;37906;-72
2022/09/06 10:37:36;;;;;;;6.00;2.97;;;;;;;30.16;27.04;100156.06;7611873;32;37911;-72
2022/09/06 10:42:12;;;;;;;8.38;2.65;;;;;;;30.37;27.17;100152.53;7608715;32;39330;-73
2022/09/06 10:46:32;;;;;;;6.22;3.08;;;;;;;30.40;27.42;100150.94;7607138;32;40828;-72
2022/09/06 10:51:04;;;;;;;7.80;2.72;;;;;;;30.55;26.80;100146.97;7594643;32;36429;-72
2022/09/06 10:55:21;;;;;;;6.05;2.83;;;;;;;30.65;27.06;100150.97;7612633;32;36758;-72
2022/09/06 10:59:56;;;;;;;10.63;3.22;;;;;;;31.19;27.04;100151.81;7606827;32;39284;-72
2022/09/06 11:04:20;;;;;;;4.87;2.45;;;;;;;30.92;26.46;100136.53;7594229;32;40744;-72
2022/09/06 11:08:54;;;;;;;6.47;2.65;;;;;;;30.97;26.38;100144.59;7607216;32;36661;-73
2022/09/06 11:13:17;;;;;;;5.70;2.80;;;;;;;31.03;27.13;100126.91;7623958;32;38122;-72
2022/09/06 11:17:44;;;;;;;5.05;2.58;;;;;;;31.47;27.02;100132.44;7632665;32;40387;-73
2022/09/06 11:22:21;;;;;;;6.25;2.72;;;;;;;31.62;26.73;100129.19;7620246;32;39744;-72
2022/09/06 11:26:43;;;;;;;3.90;2.65;;;;;;;32.31;25.95;100112.00;7632473;32;37618;-73
2022/09/06 11:31:00;;;;;;;4.65;2.75;;;;;;;32.24;25.27;100106.41;7627222;32;36857;-76
2022/09/06 11:35:27;;;;;;;9.18;2.58;;;;;;;32.22;26.17;100108.81;7606799;32;40099;-72
2022/09/06 11:39:43;;;;;;;4.70;2.60;;;;;;;32.18;25.62;100101.19;7590590;32;40016;-73
2022/09/06 11:44:57;;;;;;;4.00;2.67;;;;;;;32.43;26.28;100103.03;7605753;32;38126;-73
2022/09/06 11:49:32;;;;;;;5.25;2.72;;;;;;;32.42;25.09;100095.78;7606270;32;37297;-73
2022/09/06 11:53:48;;;;;;;3.90;2.70;;;;;;;32.97;25.16;100090.53;7602488;32;39338;-73
2022/09/06 11:58:29;;;;;;;3.95;2.40;;;;;;;32.51;25.37;100082.03;7602901;32;40581;-73
2022/09/06 12:02:47;;;;;;;4.45;2.85;;;;;;;33.00;25.20;100067.09;7602903;32;38809;-73
2022/09/06 12:07:11;;;;;;;3.92;2.42;;;;;;;33.52;24.49;100058.47;7604623;32;37172;-73
2022/09/06 12:11:45;;;;;;;4.12;2.58;;;;;;;33.38;25.24;100059.44;7606023;32;40183;-73
2022/09/06 12:16:01;;;;;;;4.65;2.78;;;;;;;33.72;23.45;100052.19;7606121;32;40075;-73
2022/09/06 12:20:51;;;;;;;4.75;2.65;;;;;;;33.47;24.16;100051.25;7606065;32;38712;-73
2022/09/06 12:25:32;;;;;;;6.18;2.92;;;;;;;32.98;24.46;100035.62;7606147;32;38140;-77
2022/09/06 12:30:00;;;;;;;5.45;2.42;;;;;;;32.83;24.59;100035.78;7605995;32;40154;-73
2022/09/06 12:34:26;;;;;;;10.77;3.60;;;;;;;32.27;25.16;100032.22;7605458;32;39956;-73
2022/09/06 12:38:57;;;;;;;6.37;2.90;;;;;;;31.61;27.03;100026.16;7605420;32;37757;-73
2022/09/06 12:43:18;;;;;;;3.70;2.60;;;;;;;31.57;26.80;100024.59;7605599;32;37838;-73
2022/09/06 12:47:36;;;;;;;6.60;2.70;;;;;;;31.86;26.89;100013.97;7605545;32;39509;-72
2022/09/06 12:52:05;;;;;;;3.22;2.53;;;;;;;32.11;26.89;100004.56;7592475;32;38955;-73
2022/09/06 12:56:23;;;;;;;3.58;2.53;;;;;;;32.04;26.49;99991.28;7605350;32;38795;-73
2022/09/06 13:00:40;;;;;;;4.10;2.70;;;;;;;31.69;26.96;99990.31;7605248;32;37913;-72
2022/09/06 13:05:04;;;;;;;3.83;2.70;;;;;;;31.83;27.94;99981.75;7591059;32;40143;-73
2022/09/06 13:09:22;;;;;;;10.05;3.05;;;;;;;31.74;27.56;99984.22;7605220;32;40111;-73
2022/09/06 13:13:47;;;;;;;3.72;2.33;;;;;;;31.41;27.55;99977.16;7605165;32;36825;-73
2022/09/06 13:18:35;;;;;;;5.50;2.70;;;;;;;31.51;26.74;99972.69;7605370;32;35262;-72
2022/09/06 13:22:53;;;;;;;5.53;2.72;;;;;;;31.37;27.25;99977.16;7604917;32;39539;-73
2022/09/06 13:27:26;;;;;;;6.43;2.78;;;;;;;31.31;27.59;99970.34;7604778;32;40246;-73
2022/09/06 13:31:46;;;;;;;6.10;2.58;;;;;;;31.19;28.34;99968.00;7604554;32;37923;-74
2022/09/06 13:36:07;;;;;;;6.55;2.80;;;;;;;31.14;27.44;99962.78;7604643;32;37803;-73
2022/09/06 13:40:42;;;;;;;2.90;2.20;;;;;;;31.54;26.81;99952.94;7604465;32;39251;-73
2022/09/06 13:45:28;;;;;;;5.55;2.60;;;;;;;31.56;26.29;99944.09;7604083;32;41196;-72
2022/09/06 13:49:46;;;;;;;5.47;2.30;;;;;;;31.19;25.73;99948.28;7591302;32;38663;-73
2022/09/06 13:54:06;;;;;;;5.68;2.58;;;;;;;30.92;26.61;99943.13;7604333;32;36896;-72
2022/09/06 13:58:23;;;;;;;4.43;2.25;;;;;;;30.65;26.57;99949.22;7604349;32;39352;-72
2022/09/06 14:02:42;;;;;;;6.68;2.65;;;;;;;30.63;26.88;99945.19;7591096;32;40212;-78
2022/09/06 14:06:59;;;;;;;4.32;3.03;;;;;;;30.08;28.33;99949.22;7599657;32;37878;-73
2022/09/06 14:11:15;;;;;;;9.55;2.85;;;;;;;29.76;28.67;99947.22;7580147;32;36846;-73
2022/09/06 14:15:31;;;;;;;10.18;2.80;;;;;;;29.69;28.67;99949.97;7604180;32;39281;-73
2022/09/06 14:19:48;;;;;;;5.70;2.80;;;;;;;28.38;30.59;99964.53;7606892;32;39598;-77
2022/09/06 14:24:05;;;;;;;6.50;3.00;;;;;;;27.78;35.05;99968.38;7607405;32;38072;-76
2022/09/06 14:28:21;;;;;;;8.18;2.83;;;;;;;28.02;35.59;99961.44;7606535;32;37096;-76
2022/09/06 14:32:37;;;;;;;4.45;2.70;;;;;;;27.98;36.21;99973.81;7607174;32;39101;-76
2022/09/06 14:36:53;;;;;;;4.50;2.80;;;;;;;27.89;36.34;99976.91;7593313;32;39727;-76
2022/09/06 14:41:12;;;;;;;5.97;2.78;;;;;;;27.84;36.49;99978.03;7607159;32;38389;-76
2022/09/06 14:45:28;;;;;;;6.15;2.95;;;;;;;27.76;37.62;99978.34;7606960;32;37780;-77
2022/09/06 14:49:44;;;;;;;4.68;3.00;;;;;;;27.77;37.97;99979.94;7606337;32;39874;-76
2022/09/06 14:54:09;;;;;;;5.45;2.92;;;;;;;27.45;38.53;99983.22;7607114;32;40745;-76
2022/09/06 14:58:25;;;;;;;5.15;2.90;;;;;;;27.03;39.92;99987.84;7606174;32;38518;-76
2022/09/06 15:02:42;;;;;;;7.32;3.30;;;;;;;26.82;40.63;99993.97;7606913;32;37711;-77
2022/09/06 15:06:59;;;;;;;4.97;2.75;;;;;;;26.66;40.93;100007.28;7606499;32;39446;-77
2022/09/06 15:11:28;;;;;;;5.22;2.90;;;;;;;26.48;41.51;100013.37;7606230;32;39955;-76
2022/09/06 15:15:45;;;;;;;4.32;3.10;;;;;;;26.15;42.34;100017.63;7606679;32;38772;-77
2022/09/06 15:20:01;;;;;;;4.65;2.83;;;;;;;26.05;42.60;100013.44;7606025;32;37094;-77
2022/09/06 15:24:18;;;;;;;6.53;2.92;;;;;;;25.76;43.11;100023.25;7606748;32;39022;-77
2022/09/06 15:28:36;;;;;;;7.65;3.15;;;;;;;25.77;43.01;100024.06;7605278;32;40911;-77
2022/09/06 15:32:52;;;;;;;8.27;3.30;;;;;;;25.12;44.58;100031.84;7606136;32;38804;-76
2022/09/06 15:37:08;;;;;;;7.55;3.30;;;;;;;24.86;45.08;100026.09;7606101;32;37325;-72
2022/09/06 15:41:27;;;;;;;4.53;3.28;;;;;;;24.58;45.89;100027.03;7605816;32;39491;-72
2022/09/06 15:45:48;;;;;;;5.05;3.10;;;;;;;25.01;45.63;100011.31;7606263;32;41030;-71
2022/09/06 15:50:05;;;;;;;7.80;3.75;;;;;;;25.26;45.96;100006.28;7605854;32;36948;-72
2022/09/06 15:55:54;;;;;;;6.35;3.42;;;;;;;25.17;47.69;100014.03;7606266;32;37498;-72
2022/09/06 15:58:58;;;;;;;6.47;3.15;;;;;;;25.32;46.72;100017.97;7605846;32;39991;-72
2022/09/06 16:03:14;;;;;;;5.32;3.17;;;;;;;25.15;47.29;100015.56;7605589;32;39739;-72
2022/09/06 16:07:30;;;;;;;8.32;3.95;;;;;;;25.03;48.61;100022.91;7605509;32;38008;-72
2022/09/06 16:11:46;;;;;;;4.80;3.08;;;;;;;25.06;48.18;100024.97;7605373;32;37909;-73
2022/09/06 16:16:05;;;;;;;6.93;3.62;;;;;;;25.12;47.46;100022.69;7605918;32;39249;-72
2022/09/06 16:20:22;;;;;;;6.47;3.47;;;;;;;25.15;46.68;100009.97;7605415;32;39592;-72
2022/09/06 16:24:38;;;;;;;5.78;3.70;;;;;;;24.95;46.74;100009.97;7606021;32;38547;-72
2022/09/06 16:28:54;;;;;;;7.45;3.80;;;;;;;24.85;48.21;100010.53;7605531;32;37571;-71
2022/09/06 16:33:11;;;;;;;6.68;3.97;;;;;;;24.67;49.47;100013.72;7605171;32;39909;-71
2022/09/06 16:37:27;;;;;;;7.65;3.85;;;;;;;24.72;48.97;100005.06;7605658;32;39935;-72
2022/09/06 16:41:45;;;;;;;7.28;4.00;;;;;;;24.74;48.64;99994.34;7603745;32;37924;-71
2022/09/06 16:46:02;;;;;;;4.43;3.03;;;;;;;24.66;49.24;99988.97;7605623;32;37816;-72
2022/09/06 16:50:19;;;;;;;5.18;2.85;;;;;;;24.55;48.94;99994.31;7605257;32;40215;-72
2022/09/06 16:54:36;;;;;;;4.85;3.28;;;;;;;24.45;48.89;99983.69;7605401;32;40496;-72
2022/09/06 16:58:57;;;;;;;8.05;3.75;;;;;;;24.32;48.74;99975.44;7604937;32;38047;-72
2022/09/06 17:03:13;;;;;;;6.53;3.40;;;;;;;24.12;48.93;99987.66;7604887;32;36264;-71
2022/09/06 17:07:30;;;;;;;5.22;2.72;;;;;;;24.26;48.71;99987.19;7591997;32;39319;-71
2022/09/06 17:11:48;;;;;;;5.43;3.00;;;;;;;24.08;49.23;99976.41;7605131;32;38616;-71
2022/09/06 17:20:40;;;;;;;8.70;3.58;;;;;;;24.19;47.86;99966.34;7605047;32;37161;-71
2022/09/06 17:24:56;;;;;;;5.00;3.08;;;;;;;23.99;48.03;99962.66;7604463;32;39358;-72
2022/09/06 17:29:12;;;;;;;6.00;3.53;;;;;;;23.94;48.62;99960.16;7604503;32;40837;-71
2022/09/06 17:33:29;;;;;;;6.25;3.40;;;;;;;23.69;50.02;99965.03;7604700;32;38669;-72
2022/09/06 17:37:46;;;;;;;7.35;3.72;;;;;;;23.67;50.07;99974.91;7603476;32;36908;-80
2022/09/06 17:42:02;;;;;;;7.15;3.30;;;;;;;23.68;50.29;99980.13;7604670;32;39321;-71
2022/09/06 17:46:18;;;;;;;5.25;3.58;;;;;;;23.84;49.64;99977.38;7604456;32;39995;-70
2022/09/06 17:50:35;;;;;;;5.82;3.33;;;;;;;23.61;49.63;99980.72;7605112;32;38344;-72
2022/09/06 17:54:51;;;;;;;5.70;3.30;;;;;;;23.54;50.42;99977.75;7607616;32;37147;-71
2022/09/06 17:59:10;;;;;;;4.15;3.10;;;;;;;23.49;50.68;99989.12;7607583;32;39441;-72
2022/09/06 18:03:26;;;;;;;7.32;3.50;;;;;;;23.37;50.81;99998.34;7607506;32;40575;-71
2022/09/06 18:07:42;;;;;;;6.22;3.40;;;;;;;23.39;50.79;100001.56;7607323;32;38090;-71
2022/09/06 18:11:58;;;;;;;5.30;3.08;;;;;;;23.34;51.05;100001.00;7607324;32;37116;-71
2022/09/06 18:16:14;;;;;;;7.03;3.20;;;;;;;23.21;51.24;100006.59;7607321;32;39683;-70
2022/09/06 18:20:30;;;;;;;7.25;3.42;;;;;;;23.21;51.09;100011.34;7593930;32;39918;-71
2022/09/06 18:24:47;;;;;;;6.22;2.90;;;;;;;22.98;51.09;100008.25;7607072;32;37875;-70
2022/09/06 18:29:05;;;;;;;4.85;3.05;;;;;;;23.19;50.40;99995.00;7607232;32;38109;-70
2022/09/06 18:33:25;;;;;;;6.10;3.08;;;;;;;23.13;50.43;100004.78;7607051;32;39284;-71
2022/09/06 18:37:41;;;;;;;6.72;3.20;;;;;;;23.11;50.32;99995.16;7607066;32;40009;-71
2022/09/06 18:42:00;;;;;;;6.85;3.37;;;;;;;23.02;50.53;100006.37;7606896;32;38010;-72
2022/09/06 18:46:16;;;;;;;4.40;3.00;;;;;;;22.90;50.86;100007.22;7606915;32;37318;-72
2022/09/06 18:50:35;;;;;;;6.18;3.20;;;;;;;22.84;51.07;100005.84;7606873;32;40254;-71
2022/09/06 18:54:51;;;;;;;8.63;3.42;;;;;;;23.00;50.66;100017.84;7593989;32;39884;-71
2022/09/06 18:59:09;;;;;;;5.12;3.03;;;;;;;22.86;51.26;100018.22;7606771;32;37944;-71
2022/09/06 19:03:26;;;;;;;5.75;3.60;;;;;;;22.97;50.85;100028.88;7593495;32;36278;-71
2022/09/06 19:07:42;;;;;;;4.70;3.08;;;;;;;22.90;50.98;100034.19;7632645;32;39213;-71
2022/09/06 19:11:58;;;;;;;4.97;2.90;;;;;;;22.71;51.73;100032.81;7623014;32;39703;-72
2022/09/06 19:16:14;;;;;;;6.55;3.17;;;;;;;22.69;52.00;100041.50;7609600;32;38690;-71
2022/09/06 19:20:30;;;;;;;5.30;3.42;;;;;;;22.72;51.92;100033.66;7632342;32;35602;-71
2022/09/06 19:24:47;;;;;;;5.37;3.20;;;;;;;22.68;51.99;100031.56;7632727;32;39911;-71
2022/09/06 19:29:07;;;;;;;7.22;3.37;;;;;;;22.72;51.95;100020.56;7607873;32;40057;-71
2022/09/06 19:33:27;;;;;;;7.22;3.97;;;;;;;22.80;51.80;100019.63;7606391;32;37931;-71
2022/09/06 19:37:47;;;;;;;6.12;3.22;;;;;;;22.75;51.90;100017.09;7606696;32;37022;-71
2022/09/06 19:42:04;;;;;;;8.75;3.80;;;;;;;22.71;51.91;100016.16;7606551;32;39833;-71
2022/09/06 19:46:23;;;;;;;5.78;3.47;;;;;;;22.74;51.76;100011.88;7602669;32;40737;-71
2022/09/06 19:50:40;;;;;;;5.60;3.45;;;;;;;22.58;52.11;100009.78;7608858;32;37996;-70
2022/09/06 19:54:56;;;;;;;6.28;3.12;;;;;;;22.45;52.35;100014.53;7605445;32;37391;-70
2022/09/06 19:59:13;;;;;;;7.85;3.37;;;;;;;22.39;52.64;100013.16;7605465;32;40178;-71
2022/09/06 20:03:30;;;;;;;11.18;3.35;;;;;;;22.23;53.08;100007.44;7610483;32;40609;-71
2022/09/06 20:07:46;;;;;;;5.53;3.65;;;;;;;22.12;53.24;100007.06;7628700;32;37958;-71
2022/09/06 20:12:02;;;;;;;11.75;3.60;;;;;;;22.34;52.52;100007.81;7615261;32;37034;-72
2022/09/06 20:16:19;;;;;;;10.63;3.60;;;;;;;22.21;52.98;100014.47;7605040;32;40041;-71
2022/09/06 20:20:36;;;;;;;6.35;3.60;;;;;;;22.21;53.05;100006.16;7605201;32;39724;-71